Time,TemperatureF,DewpointF,PressureIn,WindDirection,WindDirectionDegrees,WindSpeedMPH,WindSpeedGustMPH,Humidity,HourlyPrecipIn,Conditions,Clouds,dailyrainin,SoftwareType,DateUTC
2013-10-21 00:02:00,54.5,39.2,30.04,North,353,0.0,0.0,56,0.00,,,0.00,meteohub,2013-10-21 07:02:00,
2013-10-21 00:22:00,55.6,41.0,30.04,North,357,0.0,0.0,58,0.00,,,0.00,meteohub,2013-10-21 07:22:00,
2013-10-21 00:42:00,57.0,42.4,30.04,North,0,0.0,0.0,58,0.00,,,0.00,meteohub,2013-10-21 07:42:00,
2013-10-21 01:02:00,58.3,44.1,30.04,North,357,0.0,0.0,59,0.00,,,0.00,meteohub,2013-10-21 08:02:00,
2013-10-21 01:22:00,58.6,44.8,30.04,North,0,0.0,0.0,60,0.00,,,0.00,meteohub,2013-10-21 08:22:00,
2013-10-21 01:42:00,58.6,45.7,30.04,North,0,0.0,0.0,62,0.00,,,0.00,meteohub,2013-10-21 08:42:00,
2013-10-21 02:02:00,58.6,46.0,30.04,West,259,0.0,2.0,63,0.00,,,0.00,meteohub,2013-10-21 09:02:00,
2013-10-21 02:22:00,58.3,46.6,30.01,NW,320,0.0,5.0,65,0.00,,,0.00,meteohub,2013-10-21 09:22:00,
2013-10-21 02:42:00,58.5,47.5,30.04,North,353,0.0,3.0,67,0.00,,,0.00,meteohub,2013-10-21 09:42:00,
2013-10-21 03:02:00,58.5,48.0,30.04,NE,37,0.0,4.0,68,0.00,,,0.00,meteohub,2013-10-21 10:02:00,
2013-10-21 03:22:00,58.1,48.0,30.04,NW,326,0.0,4.0,69,0.00,,,0.00,meteohub,2013-10-21 10:22:00,
2013-10-21 03:42:00,57.9,48.2,30.04,SSW,192,0.0,3.0,70,0.00,,,0.00,meteohub,2013-10-21 10:42:00,
2013-10-21 04:02:00,58.1,49.1,30.04,SE,145,0.0,3.0,72,0.00,,,0.00,meteohub,2013-10-21 11:02:00,
2013-10-21 04:22:00,57.9,48.9,30.01,NW,306,0.0,3.0,72,0.00,,,0.00,meteohub,2013-10-21 11:22:00,
2013-10-21 04:42:00,57.7,49.1,30.01,South,177,0.0,3.0,73,0.00,,,0.00,meteohub,2013-10-21 11:42:00,
2013-10-21 05:02:00,57.7,49.5,30.04,NNE,15,0.0,4.0,74,0.00,,,0.00,meteohub,2013-10-21 12:02:00,
2013-10-21 05:22:00,57.9,49.6,30.04,SE,137,3.0,0.0,74,0.00,,,0.00,meteohub,2013-10-21 12:22:00,
2013-10-21 05:42:00,57.7,49.5,30.04,East,93,0.0,0.0,74,0.00,,,0.00,meteohub,2013-10-21 12:42:00,
2013-10-21 06:02:00,57.7,50.2,30.04,North,7,0.0,3.0,76,0.00,,,0.00,meteohub,2013-10-21 13:02:00,
2013-10-21 06:22:00,57.6,50.0,30.04,North,2,0.0,0.0,76,0.00,,,0.00,meteohub,2013-10-21 13:22:00,
2013-10-21 06:42:00,57.7,50.5,30.04,NW,308,0.0,3.0,77,0.00,,,0.00,meteohub,2013-10-21 13:42:00,
2013-10-21 07:02:00,57.7,50.5,30.01,NNW,329,0.0,3.0,77,0.00,,,0.00,meteohub,2013-10-21 14:02:00,
2013-10-21 07:22:00,57.9,51.1,30.04,NE,42,0.0,5.0,78,0.00,,,0.00,meteohub,2013-10-21 14:22:00,
2013-10-21 07:42:00,58.1,51.3,30.04,NNE,16,0.0,3.0,78,0.00,,,0.00,meteohub,2013-10-21 14:42:00,
2013-10-21 08:02:00,58.5,51.3,30.04,North,0,0.0,4.0,77,0.00,,,0.00,meteohub,2013-10-21 15:02:00,
2013-10-21 08:22:00,59.0,51.4,30.07,NW,315,0.0,0.0,76,0.00,,,0.00,meteohub,2013-10-21 15:22:00,
2013-10-21 08:42:00,60.1,52.5,30.07,ESE,102,0.0,4.0,76,0.00,,,0.00,meteohub,2013-10-21 15:42:00,
2013-10-21 09:02:00,61.0,51.4,30.07,SW,219,0.0,3.0,71,0.00,,,0.00,meteohub,2013-10-21 16:02:00,
2013-10-21 09:22:00,61.7,43.9,30.07,SW,234,0.0,6.0,52,0.00,,,0.00,meteohub,2013-10-21 16:22:00,
2013-10-21 09:42:00,62.4,40.3,30.07,SW,234,3.0,5.0,44,0.00,,,0.00,meteohub,2013-10-21 16:42:00,
2013-10-21 10:02:00,62.6,37.2,30.07,West,278,0.0,7.0,39,0.00,,,0.00,meteohub,2013-10-21 17:02:00,
2013-10-21 10:22:00,63.0,37.0,30.07,SW,236,5.0,5.0,38,0.00,,,0.00,meteohub,2013-10-21 17:22:00,
2013-10-21 10:42:00,62.8,36.9,30.07,West,278,4.0,8.0,38,0.00,,,0.00,meteohub,2013-10-21 17:42:00,
2013-10-21 11:02:00,63.5,36.7,30.07,WSW,244,6.0,8.0,37,0.00,,,0.00,meteohub,2013-10-21 18:02:00,
2013-10-21 11:22:00,63.7,36.9,30.07,SW,219,3.0,6.0,37,0.00,,,0.00,meteohub,2013-10-21 18:22:00,
2013-10-21 11:42:00,64.8,37.2,30.07,WSW,240,7.0,8.0,36,0.00,,,0.00,meteohub,2013-10-21 18:42:00,
2013-10-21 12:02:00,65.1,37.6,30.07,West,276,6.0,8.0,36,0.00,,,0.00,meteohub,2013-10-21 19:02:00,
2013-10-21 12:22:00,66.6,38.1,30.07,West,273,6.0,8.0,35,0.00,,,0.00,meteohub,2013-10-21 19:22:00,
2013-10-21 12:42:00,67.5,38.1,30.04,West,265,6.0,8.0,34,0.00,,,0.00,meteohub,2013-10-21 19:42:00,
2013-10-21 13:02:00,68.0,38.7,30.04,WSW,237,5.0,8.0,34,0.00,,,0.00,meteohub,2013-10-21 20:02:00,
2013-10-21 13:22:00,67.3,37.9,30.04,SW,227,9.0,9.0,34,0.00,,,0.00,meteohub,2013-10-21 20:22:00,
2013-10-21 13:42:00,67.8,38.5,30.04,SW,230,6.0,8.0,34,0.00,,,0.00,meteohub,2013-10-21 20:42:00,
2013-10-21 14:02:00,67.6,38.3,30.04,West,267,6.0,10.0,34,0.00,,,0.00,meteohub,2013-10-21 21:02:00,
2013-10-21 14:22:00,68.4,38.1,30.04,WSW,254,6.0,10.0,33,0.00,,,0.00,meteohub,2013-10-21 21:22:00,
2013-10-21 14:42:00,68.0,38.7,30.01,SW,222,5.0,11.0,34,0.00,,,0.00,meteohub,2013-10-21 21:42:00,
2013-10-21 15:02:00,68.4,38.8,30.01,WSW,242,8.0,11.0,34,0.00,,,0.00,meteohub,2013-10-21 22:02:00,
2013-10-21 15:22:00,68.2,38.7,30.01,SW,226,6.0,9.0,34,0.00,,,0.00,meteohub,2013-10-21 22:22:00,
2013-10-21 16:02:00,67.5,39.6,30.01,WSW,241,5.0,11.0,36,0.00,,,0.00,meteohub,2013-10-21 23:02:00,
2013-10-21 16:22:00,67.5,38.8,30.01,WSW,255,6.0,11.0,35,0.00,,,0.00,meteohub,2013-10-21 23:22:00,
2013-10-21 16:42:00,66.6,38.8,30.01,WSW,250,9.0,11.0,36,0.00,,,0.00,meteohub,2013-10-21 23:42:00,
2013-10-21 17:02:00,66.4,39.4,30.01,SW,227,5.0,11.0,37,0.00,,,0.00,meteohub,2013-10-22 00:02:00,
2013-10-21 17:22:00,66.2,39.2,30.01,WSW,245,5.0,10.0,37,0.00,,,0.00,meteohub,2013-10-22 00:22:00,
2013-10-21 17:42:00,64.6,40.3,30.01,WSW,240,6.0,11.0,41,0.00,,,0.00,meteohub,2013-10-22 00:42:00,
2013-10-21 18:02:00,63.5,41.2,30.01,West,275,3.0,8.0,44,0.00,,,0.00,meteohub,2013-10-22 01:02:00,
2013-10-21 18:22:00,63.0,41.4,30.01,WSW,256,8.0,8.0,45,0.00,,,0.00,meteohub,2013-10-22 01:22:00,
2013-10-21 18:42:00,62.4,41.9,30.01,West,274,6.0,8.0,47,0.00,,,0.00,meteohub,2013-10-22 01:42:00,
2013-10-21 19:02:00,62.2,42.3,30.04,SW,226,5.0,8.0,48,0.00,,,0.00,meteohub,2013-10-22 02:02:00,
2013-10-21 19:22:00,61.9,42.4,30.04,WSW,255,3.0,7.0,49,0.00,,,0.00,meteohub,2013-10-22 02:22:00,
2013-10-21 19:42:00,61.7,42.3,30.04,West,262,0.0,6.0,49,0.00,,,0.00,meteohub,2013-10-22 02:42:00,
2013-10-21 20:02:00,61.3,42.1,30.04,West,271,0.0,5.0,49,0.00,,,0.00,meteohub,2013-10-22 03:02:00,
2013-10-21 20:22:00,60.8,41.5,30.04,West,280,0.0,0.0,49,0.00,,,0.00,meteohub,2013-10-22 03:22:00,
2013-10-21 20:42:00,59.5,40.8,30.04,West,280,0.0,0.0,50,0.00,,,0.00,meteohub,2013-10-22 03:42:00,
2013-10-21 21:02:00,58.8,40.3,30.07,West,280,0.0,0.0,50,0.00,,,0.00,meteohub,2013-10-22 04:02:00,
2013-10-21 21:22:00,58.3,39.7,30.07,West,279,0.0,0.0,50,0.00,,,0.00,meteohub,2013-10-22 04:22:00,
2013-10-21 21:42:00,57.7,39.2,30.07,West,280,0.0,0.0,50,0.00,,,0.00,meteohub,2013-10-22 04:42:00,
2013-10-21 22:02:00,57.2,39.2,30.07,West,280,0.0,0.0,51,0.00,,,0.00,meteohub,2013-10-22 05:02:00,
2013-10-21 22:22:00,56.7,38.7,30.07,West,279,0.0,0.0,51,0.00,,,0.00,meteohub,2013-10-22 05:22:00,
2013-10-21 22:42:00,55.9,38.1,30.07,West,280,0.0,0.0,51,0.00,,,0.00,meteohub,2013-10-22 05:42:00,
2013-10-21 23:02:00,55.6,38.3,30.07,West,279,0.0,0.0,52,0.00,,,0.00,meteohub,2013-10-22 06:02:00,
2013-10-21 23:22:00,55.0,37.8,30.07,West,279,0.0,0.0,52,0.00,,,0.00,meteohub,2013-10-22 06:22:00,
2013-10-21 23:42:00,54.7,37.9,30.07,West,280,0.0,0.0,53,0.00,,,0.00,meteohub,2013-10-22 06:42:00,